Kvb Empire — PD5101 — position and weather

sailwx.info

Track history (hours):
 
Tides and Currents Weather Stations Pressure Air Temp Water Temp Dewpoint Dewpoint Depression Visibility Wind Speed Wind Dir Waves Ship Positions

Kvb Empire

Last reported at 2016-Sep-26 02:33 UTC. Time now 2016-Sep-26 15:42 UTC.
Position N 49°19' E 008°27'.

Length 183 m; draft 2 m.

Type: Ship. MMSI: 244670090.

Date/timePositionNaut miles runAvg speedWind from/ knotsBaromVisibWave heightAir tempDewpointWater temp
2016-Sep-26 02:33N 49°19' E 008°27'  
2016-Sep-23 19:33N 50°57' E 006°58'11 3.8
2016-Sep-23 16:33N 51°07' E 006°52'2 2.4
2016-Sep-23 15:33N 51°09' E 006°48'6 2.8
2016-Sep-23 13:34N 51°14' E 006°46'25 3.5
2016-Sep-23 06:29N 51°38' E 006°36'13 4.6
2016-Sep-23 03:32N 51°47' E 006°19'17 5.3
2016-Sep-23 00:25N 51°52' E 005°54'5 4.8
2016-Sep-22 23:29N 51°53' E 005°47'16 5.4
2016-Sep-22 20:34N 51°57' E 005°22'37 4.6
2016-Sep-22 12:33N 52°25' E 004°45'32 4.0
2016-Sep-22 04:33N 51°59' E 005°15'5 4.8
2016-Sep-22 03:33N 51°57' E 005°22'55 2.3
2016-Sep-21 03:33N 51°32' E 006°41'152 6.1
2016-Sep-20 02:33N 49°16' E 008°27'20 0.4
2016-Sep-18 00:27N 48°58' E 008°15'9 4.5
2016-Sep-17 22:33N 49°06' E 008°22'5 4.8
2016-Sep-17 21:33N 49°11' E 008°22'5 4.9
2016-Sep-17 20:33N 49°15' E 008°25'7 4.1
2016-Sep-17 18:54N 49°21' E 008°29'  
Track history (hours):
 
Tides and Currents Weather Stations Pressure Air Temp Water Temp Dewpoint Dewpoint Depression Visibility Wind Speed Wind Dir Waves Ship Positions

Kvb Empire

Last reported at 2016-Sep-26 02:33 UTC. Time now 2016-Sep-26 15:42 UTC.
Position N 49°19' E 008°27'.

Length 183 m; draft 2 m.

Type: Ship. MMSI: 244670090.

Date/timePositionNaut miles runAvg speedWind from/ knotsBaromVisibWave heightAir tempDewpointWater temp
2016-Sep-26 02:33N 49°19' E 008°27'  
2016-Sep-23 19:33N 50°57' E 006°58'11 3.8
2016-Sep-23 16:33N 51°07' E 006°52'2 2.4
2016-Sep-23 15:33N 51°09' E 006°48'6 2.8
2016-Sep-23 13:34N 51°14' E 006°46'25 3.5
2016-Sep-23 06:29N 51°38' E 006°36'13 4.6
2016-Sep-23 03:32N 51°47' E 006°19'17 5.3
2016-Sep-23 00:25N 51°52' E 005°54'5 4.8
2016-Sep-22 23:29N 51°53' E 005°47'16 5.4
2016-Sep-22 20:34N 51°57' E 005°22'37 4.6
2016-Sep-22 12:33N 52°25' E 004°45'32 4.0
2016-Sep-22 04:33N 51°59' E 005°15'5 4.8
2016-Sep-22 03:33N 51°57' E 005°22'55 2.3
2016-Sep-21 03:33N 51°32' E 006°41'152 6.1
2016-Sep-20 02:33N 49°16' E 008°27'20 0.4
2016-Sep-18 00:27N 48°58' E 008°15'9 4.5
2016-Sep-17 22:33N 49°06' E 008°22'5 4.8
2016-Sep-17 21:33N 49°11' E 008°22'5 4.9
2016-Sep-17 20:33N 49°15' E 008°25'7 4.1
2016-Sep-17 18:54N 49°21' E 008°29'  

Dump ship's entire track history